createdAt,value
2022-09-23T00:01:34.539Z,100306.69
2022-09-23T00:04:19.997Z,100305.53
2022-09-23T00:06:46.528Z,100306.50
2022-09-23T00:09:13.070Z,100313.00
2022-09-23T00:11:39.629Z,100310.50
2022-09-23T00:14:06.292Z,100297.19
2022-09-23T00:16:34.951Z,100300.91
2022-09-23T00:19:21.761Z,100295.00
2022-09-23T00:22:22.978Z,100299.16
2022-09-23T00:25:13.760Z,100300.63
2022-09-23T00:27:40.770Z,100296.00
2022-09-23T00:30:09.465Z,100288.09
2022-09-23T00:32:36.792Z,100299.59
2022-09-23T00:35:04.140Z,100293.41
2022-09-23T00:37:31.196Z,100291.75
2022-09-23T00:40:12.358Z,100292.88
2022-09-23T00:42:46.786Z,100281.22
2022-09-23T00:45:13.686Z,100285.00
2022-09-23T00:47:51.074Z,100275.88
2022-09-23T00:50:37.836Z,100279.19
2022-09-23T00:53:26.887Z,100277.31
2022-09-23T00:56:34.343Z,100273.78
2022-09-23T00:59:24.608Z,100274.37
2022-09-23T01:01:54.890Z,100272.53
2022-09-23T01:04:24.571Z,100279.09
2022-09-23T01:06:51.306Z,100273.84
2022-09-23T01:09:18.557Z,100283.75
2022-09-23T01:12:10.083Z,100279.41
2022-09-23T01:14:48.452Z,100279.09
2022-09-23T01:17:27.428Z,100288.44
2022-09-23T01:20:03.508Z,100281.03
2022-09-23T01:22:39.306Z,100284.78
2022-09-23T01:25:40.841Z,100284.34
2022-09-23T01:28:10.378Z,100287.63
2022-09-23T01:30:36.980Z,100277.84
2022-09-23T01:33:49.397Z,100285.09
2022-09-23T01:36:26.411Z,100288.09
2022-09-23T01:39:00.399Z,100284.94
2022-09-23T01:41:53.530Z,100283.06
2022-09-23T01:44:34.908Z,100288.53
2022-09-23T01:47:30.576Z,100292.06
2022-09-23T01:50:48.902Z,100282.25
2022-09-23T01:53:30.963Z,100286.34
2022-09-23T01:56:02.911Z,100288.28
2022-09-23T02:02:44.348Z,100282.19
2022-09-23T02:05:18.353Z,100276.75
2022-09-23T02:07:59.922Z,100280.87
2022-09-23T02:10:30.162Z,100283.31
2022-09-23T02:13:02.558Z,100273.03
2022-09-23T02:15:36.858Z,100274.87
2022-09-23T02:18:15.182Z,100271.94
2022-09-23T02:20:43.304Z,100280.87
2022-09-23T02:23:21.254Z,100264.19
2022-09-23T02:26:07.431Z,100270.44
2022-09-23T02:28:49.402Z,100268.81
2022-09-23T02:31:29.539Z,100270.69
2022-09-23T02:34:35.303Z,100268.34
2022-09-23T02:37:26.333Z,100272.50
2022-09-23T02:40:15.682Z,100269.44
2022-09-23T02:42:44.990Z,100271.53
2022-09-23T02:45:11.606Z,100266.88
2022-09-23T02:48:02.567Z,100272.53
2022-09-23T02:53:45.926Z,100277.41
2022-09-23T02:56:21.198Z,100270.69
2022-09-23T02:58:49.840Z,100275.50
2022-09-23T03:01:34.451Z,100276.50
2022-09-23T03:04:06.867Z,100274.41
2022-09-23T03:06:51.516Z,100269.03
2022-09-23T03:09:53.080Z,100268.75
2022-09-23T03:12:36.115Z,100271.22
2022-09-23T03:15:15.369Z,100268.06
2022-09-23T03:17:52.166Z,100260.00
2022-09-23T03:20:34.238Z,100264.63
2022-09-23T03:23:26.270Z,100276.03
2022-09-23T03:25:55.722Z,100276.28
2022-09-23T03:28:25.425Z,100276.69
2022-09-23T03:30:54.471Z,100272.13
2022-09-23T03:33:28.410Z,100267.19
2022-09-23T03:36:28.431Z,100272.81
2022-09-23T03:42:49.061Z,100280.09
2022-09-23T03:45:20.383Z,100274.66
2022-09-23T03:47:47.166Z,100269.50
2022-09-23T03:50:14.540Z,100273.75
2022-09-23T03:52:41.133Z,100273.31
2022-09-23T03:55:08.281Z,100268.03
2022-09-23T03:57:35.171Z,100272.25
2022-09-23T04:00:02.131Z,100266.12
2022-09-23T04:02:28.733Z,100271.53
2022-09-23T04:04:56.088Z,100275.78
2022-09-23T04:07:22.670Z,100276.38
2022-09-23T04:09:49.275Z,100278.63
2022-09-23T04:12:27.997Z,100275.47
2022-09-23T04:14:54.583Z,100280.09
2022-09-23T04:17:21.152Z,100269.47
2022-09-23T04:19:47.690Z,100279.56
2022-09-23T04:22:14.260Z,100282.50
2022-09-23T04:24:40.845Z,100281.22
2022-09-23T04:27:46.185Z,100283.94
2022-09-23T04:30:46.059Z,100284.06
2022-09-23T04:33:13.762Z,100276.62
2022-09-23T04:35:43.478Z,100286.38
2022-09-23T04:38:12.630Z,100294.72
2022-09-23T04:40:39.564Z,100285.94
2022-09-23T04:43:07.810Z,100286.47
2022-09-23T04:45:36.498Z,100290.78
2022-09-23T04:48:04.166Z,100283.53
2022-09-23T04:50:33.935Z,100292.47
2022-09-23T04:53:00.927Z,100292.81
2022-09-23T04:55:27.501Z,100289.69
2022-09-23T04:57:54.666Z,100288.59
2022-09-23T05:00:23.212Z,100295.63
2022-09-23T05:02:50.883Z,100306.31
2022-09-23T05:05:21.242Z,100299.16
2022-09-23T05:07:48.767Z,100308.47
2022-09-23T05:10:16.108Z,100303.72
2022-09-23T05:12:42.743Z,100296.22
2022-09-23T05:15:09.676Z,100308.25
2022-09-23T05:17:37.371Z,100308.37
2022-09-23T05:20:04.843Z,100318.16
2022-09-23T05:22:31.475Z,100313.44
2022-09-23T05:25:01.610Z,100306.06
2022-09-23T05:27:29.113Z,100317.06
2022-09-23T05:29:55.658Z,100316.75
2022-09-23T05:32:22.643Z,100324.00
2022-09-23T05:34:49.212Z,100319.38
2022-09-23T05:37:15.916Z,100317.00
2022-09-23T05:39:42.534Z,100326.66
2022-09-23T05:42:09.936Z,100336.22
2022-09-23T05:44:36.487Z,100329.16
2022-09-23T05:47:03.096Z,100325.06
2022-09-23T05:49:48.327Z,100328.87
2022-09-23T05:52:17.218Z,100331.31
2022-09-23T05:54:43.811Z,100333.78
2022-09-23T05:57:10.542Z,100325.03
2022-09-23T05:59:38.081Z,100330.22
2022-09-23T06:02:04.963Z,100329.59
2022-09-23T06:04:31.617Z,100326.84
2022-09-23T06:07:01.555Z,100327.34
2022-09-23T06:09:34.109Z,100328.19
2022-09-23T06:12:03.630Z,100326.75
2022-09-23T06:14:30.322Z,100324.75
2022-09-23T06:16:56.889Z,100327.94
2022-09-23T06:19:23.518Z,100322.28
2022-09-23T06:21:50.123Z,100330.47
2022-09-23T06:24:20.421Z,100326.41
2022-09-23T06:26:49.086Z,100328.97
2022-09-23T06:29:15.787Z,100327.19
2022-09-23T06:31:43.396Z,100329.28
2022-09-23T06:34:13.493Z,100329.13
2022-09-23T06:36:46.165Z,100330.72
2022-09-23T06:39:16.340Z,100325.69
2022-09-23T06:41:45.463Z,100332.63
2022-09-23T06:44:13.470Z,100336.66
2022-09-23T06:46:58.398Z,100339.56
2022-09-23T06:49:25.038Z,100336.91
2022-09-23T06:51:51.603Z,100346.38
2022-09-23T06:54:18.247Z,100349.28
2022-09-23T06:56:47.499Z,100350.38
2022-09-23T06:59:16.995Z,100350.91
2022-09-23T07:05:49.235Z,100349.16
2022-09-23T07:08:16.464Z,100349.16
2022-09-23T07:10:43.094Z,100346.69
2022-09-23T07:13:14.181Z,100343.50
2022-09-23T07:15:42.557Z,100350.75
2022-09-23T07:18:09.144Z,100346.47
2022-09-23T07:20:35.736Z,100355.19
2022-09-23T07:23:02.327Z,100345.87
2022-09-23T07:25:29.261Z,100352.91
2022-09-23T07:27:56.197Z,100349.91
2022-09-23T07:30:25.434Z,100355.28
2022-09-23T07:32:53.226Z,100357.28
2022-09-23T07:35:19.897Z,100356.34
2022-09-23T07:37:46.515Z,100354.78
2022-09-23T07:40:13.184Z,100360.28
2022-09-23T07:42:40.899Z,100360.19
2022-09-23T07:45:09.087Z,100364.91
2022-09-23T07:47:36.098Z,100364.25
2022-09-23T07:50:02.894Z,100355.84
2022-09-23T07:52:29.522Z,100359.34
2022-09-23T07:54:56.221Z,100361.84
2022-09-23T07:57:22.789Z,100355.16
2022-09-23T07:59:49.358Z,100357.00
2022-09-23T08:02:16.465Z,100350.69
2022-09-23T08:05:07.599Z,100352.03
2022-09-23T08:07:34.556Z,100361.16
2022-09-23T08:10:01.984Z,100363.09
2022-09-23T08:12:32.589Z,100364.59
2022-09-23T08:15:00.464Z,100356.91
2022-09-23T08:17:27.470Z,100361.81
2022-09-23T08:26:35.945Z,100353.72
2022-09-23T08:29:02.583Z,100356.13
2022-09-23T08:31:29.216Z,100354.72
2022-09-23T08:33:57.998Z,100355.47
2022-09-23T08:36:25.397Z,100357.28
2022-09-23T08:38:52.243Z,100352.78
2022-09-23T08:41:48.950Z,100353.78
2022-09-23T08:44:34.106Z,100348.16
2022-09-23T08:47:16.138Z,100342.69
2022-09-23T08:50:02.868Z,100348.69
2022-09-23T08:52:35.778Z,100349.50
2022-09-23T08:55:03.313Z,100351.16
2022-09-23T08:58:24.445Z,100347.88
2022-09-23T09:01:27.253Z,100345.53
2022-09-23T09:04:12.705Z,100343.78
2022-09-23T09:06:53.955Z,100350.91
2022-09-23T09:09:30.397Z,100351.28
2022-09-23T09:12:23.835Z,100354.41
2022-09-23T09:14:57.130Z,100346.81
2022-09-23T09:17:35.619Z,100348.09
2022-09-23T09:20:23.242Z,100344.63
2022-09-23T09:22:49.784Z,100349.22
2022-09-23T09:25:55.495Z,100345.94
2022-09-23T09:28:41.975Z,100351.00
2022-09-23T09:31:38.064Z,100342.81
2022-09-23T09:34:23.150Z,100336.03
2022-09-23T09:37:14.840Z,100339.75
2022-09-23T09:40:13.203Z,100335.94
2022-09-23T09:43:27.547Z,100334.16
2022-09-23T09:46:34.250Z,100333.91
2022-09-23T09:49:09.133Z,100327.28
2022-09-23T09:51:36.100Z,100325.19
2022-09-23T09:54:26.826Z,100330.41
2022-09-23T09:56:54.571Z,100329.78
2022-09-23T09:59:45.353Z,100321.81
2022-09-23T10:02:21.890Z,100322.69
2022-09-23T10:04:57.787Z,100317.59
2022-09-23T10:07:32.295Z,100304.50
2022-09-23T10:10:31.701Z,100307.41
2022-09-23T10:13:15.931Z,100315.53
2022-09-23T10:16:17.618Z,100309.28
2022-09-23T10:19:14.076Z,100302.38
2022-09-23T10:21:41.599Z,100309.00
2022-09-23T10:24:19.561Z,100304.34
2022-09-23T10:27:03.341Z,100313.06
2022-09-23T10:29:38.792Z,100310.59
2022-09-23T10:32:31.718Z,100317.56
2022-09-23T10:35:24.548Z,100310.28
2022-09-23T10:37:55.787Z,100302.94
2022-09-23T10:40:49.330Z,100306.03
2022-09-23T10:43:42.944Z,100312.38
2022-09-23T10:46:37.950Z,100301.00
2022-09-23T10:49:19.548Z,100300.31
2022-09-23T10:55:17.122Z,100298.69
2022-09-23T10:57:46.623Z,100302.34
2022-09-23T11:00:24.086Z,100300.78
2022-09-23T11:03:12.456Z,100294.53
2022-09-23T11:05:45.545Z,100295.88
2022-09-23T11:08:30.326Z,100287.75
2022-09-23T11:11:10.001Z,100285.44
2022-09-23T11:13:55.078Z,100286.09
2022-09-23T11:16:45.404Z,100286.12
2022-09-23T11:19:33.758Z,100274.78
2022-09-23T11:22:22.085Z,100275.47
2022-09-23T11:24:52.209Z,100269.50
2022-09-23T11:27:29.427Z,100269.62
2022-09-23T11:30:14.699Z,100266.84
2022-09-23T11:32:48.026Z,100263.19
2022-09-23T11:35:20.527Z,100257.87
2022-09-23T11:38:03.596Z,100256.94
2022-09-23T11:40:35.516Z,100255.91
2022-09-23T11:43:35.934Z,100249.53
2022-09-23T11:46:30.366Z,100248.50
2022-09-23T11:49:23.078Z,100243.16
2022-09-23T11:52:31.225Z,100245.94
2022-09-23T11:55:21.848Z,100239.53
2022-09-23T11:57:53.848Z,100238.88
2022-09-23T12:00:26.591Z,100241.38
2022-09-23T12:03:04.675Z,100239.22
2022-09-23T12:05:41.771Z,100235.66
2022-09-23T12:08:29.387Z,100243.87
2022-09-23T12:11:21.240Z,100233.16
2022-09-23T12:14:12.498Z,100231.69
2022-09-23T12:16:58.758Z,100225.97
2022-09-23T12:19:57.502Z,100231.59
2022-09-23T12:22:27.055Z,100227.22
2022-09-23T12:25:24.037Z,100226.06
2022-09-23T12:27:55.342Z,100223.59
2022-09-23T12:30:34.153Z,100219.91
2022-09-23T12:33:15.716Z,100213.16
2022-09-23T12:35:45.390Z,100219.56
2022-09-23T12:38:49.078Z,100214.94
2022-09-23T12:41:24.720Z,100210.09
2022-09-23T12:43:56.313Z,100205.34
2022-09-23T12:46:26.043Z,100199.47
2022-09-23T12:48:58.420Z,100197.19
2022-09-23T12:51:34.473Z,100198.38
2022-09-23T13:00:34.064Z,100184.88
2022-09-23T13:03:20.017Z,100174.00
2022-09-23T13:06:17.148Z,100180.78
2022-09-23T13:08:45.570Z,100170.41
2022-09-23T13:11:21.399Z,100160.81
2022-09-23T13:13:49.953Z,100153.25
2022-09-23T13:16:30.591Z,100165.53
2022-09-23T13:18:57.255Z,100157.97
2022-09-23T13:21:42.429Z,100157.44
2022-09-23T13:24:19.734Z,100156.03
2022-09-23T13:27:05.734Z,100154.34
2022-09-23T13:29:44.533Z,100151.84
2022-09-23T13:32:19.606Z,100154.41
2022-09-23T13:35:00.865Z,100160.06
2022-09-23T13:37:32.399Z,100157.22
2022-09-23T13:40:29.073Z,100146.09
2022-09-23T13:43:09.706Z,100152.59
2022-09-23T13:45:41.687Z,100140.56
2022-09-23T13:48:15.544Z,100141.66
2022-09-23T13:50:52.069Z,100142.03
2022-09-23T13:53:32.603Z,100138.25
2022-09-23T13:56:20.421Z,100132.03
2022-09-23T13:58:47.105Z,100139.97
2022-09-23T14:01:22.470Z,100141.63
2022-09-23T14:03:49.118Z,100135.25
2022-09-23T14:06:16.705Z,100136.09
2022-09-23T14:08:50.222Z,100137.16
2022-09-23T14:11:33.460Z,100140.34
2022-09-23T14:14:07.301Z,100128.28
2022-09-23T14:16:39.602Z,100132.00
2022-09-23T14:19:08.134Z,100133.53
2022-09-23T14:21:39.531Z,100125.41
2022-09-23T14:24:21.058Z,100127.28
2022-09-23T14:26:52.324Z,100127.94
2022-09-23T14:29:40.305Z,100115.72
2022-09-23T14:32:21.775Z,100113.09
2022-09-23T14:35:01.130Z,100115.88
2022-09-23T14:38:08.519Z,100123.56
2022-09-23T14:40:50.695Z,100122.03
2022-09-23T14:43:23.244Z,100109.59
2022-09-23T14:45:59.488Z,100115.06
2022-09-23T14:48:30.757Z,100113.69
2022-09-23T14:51:03.870Z,100114.19
2022-09-23T14:53:33.154Z,100108.00
2022-09-23T14:56:08.731Z,100108.72
2022-09-23T14:58:51.756Z,100104.56
2022-09-23T15:01:24.725Z,100101.03
2022-09-23T15:03:51.760Z,100099.88
2022-09-23T15:06:18.489Z,100098.25
2022-09-23T15:08:45.583Z,100098.94
2022-09-23T15:11:12.234Z,100101.84
2022-09-23T15:13:41.865Z,100103.53
2022-09-23T15:16:08.544Z,100097.44
2022-09-23T15:18:38.467Z,100098.75
2022-09-23T15:21:17.814Z,100106.75
2022-09-23T15:23:47.593Z,100105.13
2022-09-23T15:26:15.559Z,100105.31
2022-09-23T15:28:42.826Z,100109.25
2022-09-23T15:31:20.267Z,100107.94
2022-09-23T15:33:48.139Z,100110.72
2022-09-23T15:36:21.054Z,100100.06
2022-09-23T15:38:48.095Z,100094.44
2022-09-23T15:41:15.825Z,100105.09
2022-09-23T15:43:42.498Z,100099.47
2022-09-23T15:46:17.391Z,100102.78
2022-09-23T15:49:10.237Z,100099.22
2022-09-23T15:51:38.290Z,100095.28
2022-09-23T15:54:13.881Z,100100.03
2022-09-23T15:56:40.476Z,100101.84
2022-09-23T15:59:07.122Z,100103.00
2022-09-23T16:01:36.564Z,100095.50
2022-09-23T16:04:04.586Z,100097.66
2022-09-23T16:06:32.173Z,100094.37
2022-09-23T16:08:58.774Z,100105.28
2022-09-23T16:11:35.950Z,100097.66
2022-09-23T16:14:02.633Z,100103.34
2022-09-23T16:16:29.322Z,100101.94
2022-09-23T16:18:56.062Z,100105.50
2022-09-23T16:21:26.040Z,100109.25
2022-09-23T16:23:54.469Z,100101.94
2022-09-23T16:26:27.760Z,100100.00
2022-09-23T16:28:55.957Z,100102.34
2022-09-23T16:31:29.588Z,100109.16
2022-09-23T16:33:56.575Z,100104.63
2022-09-23T16:36:33.422Z,100100.25
2022-09-23T16:39:02.905Z,100103.50
2022-09-23T16:41:33.870Z,100099.94
2022-09-23T16:44:02.564Z,100098.25
2022-09-23T16:46:29.791Z,100103.31
2022-09-23T16:48:57.683Z,100108.00
2022-09-23T16:51:29.806Z,100104.81
2022-09-23T16:53:58.277Z,100103.28
2022-09-23T16:56:28.849Z,100105.75
2022-09-23T16:58:56.809Z,100109.22
2022-09-23T17:01:47.680Z,100099.09
2022-09-23T17:04:16.157Z,100094.50
2022-09-23T17:06:50.087Z,100094.97
2022-09-23T17:09:24.660Z,100098.91
2022-09-23T17:12:07.318Z,100097.00
2022-09-23T17:14:34.605Z,100088.88
2022-09-23T17:17:01.318Z,100093.25
2022-09-23T17:19:28.251Z,100091.97
2022-09-23T17:21:54.903Z,100098.72
2022-09-23T17:24:21.462Z,100099.94
2022-09-23T17:26:52.613Z,100102.59
2022-09-23T17:29:19.920Z,100103.53
2022-09-23T17:31:46.665Z,100103.94
2022-09-23T17:34:13.398Z,100104.44
2022-09-23T17:36:40.517Z,100103.12
2022-09-23T17:39:07.323Z,100110.56
2022-09-23T17:41:33.999Z,100106.16
2022-09-23T17:44:00.779Z,100105.81
2022-09-23T17:46:30.232Z,100108.47
2022-09-23T17:48:57.703Z,100101.41
2022-09-23T17:51:25.571Z,100107.44
2022-09-23T17:53:52.220Z,100107.12
2022-09-23T17:56:25.050Z,100115.81
2022-09-23T17:58:53.546Z,100109.25
2022-09-23T18:01:22.880Z,100113.19
2022-09-23T18:03:55.356Z,100120.03
2022-09-23T18:06:24.399Z,100110.63
2022-09-23T18:08:52.301Z,100114.59
2022-09-23T18:11:27.304Z,100115.66
2022-09-23T18:14:04.664Z,100121.47
2022-09-23T18:16:36.525Z,100119.31
2022-09-23T18:19:04.578Z,100122.91
2022-09-23T18:21:36.367Z,100121.00
2022-09-23T18:26:50.363Z,100121.94
2022-09-23T18:29:17.068Z,100115.88
2022-09-23T18:31:45.176Z,100116.53
2022-09-23T18:34:15.188Z,100116.91
2022-09-23T18:36:42.407Z,100120.03
2022-09-23T18:39:09.256Z,100120.41
2022-09-23T18:41:36.516Z,100123.94
2022-09-23T18:44:04.429Z,100130.41
2022-09-23T18:46:31.578Z,100127.38
2022-09-23T18:49:17.658Z,100129.94
2022-09-23T18:51:57.891Z,100127.44
2022-09-23T18:54:28.919Z,100127.81
2022-09-23T18:56:56.622Z,100129.06
2022-09-23T18:59:26.249Z,100125.22
2022-09-23T19:01:55.535Z,100127.47
2022-09-23T19:04:27.702Z,100122.72
2022-09-23T19:06:57.290Z,100126.25
2022-09-23T19:09:24.338Z,100123.28
2022-09-23T19:11:52.531Z,100125.16
2022-09-23T19:14:19.731Z,100121.34
2022-09-23T19:16:48.959Z,100131.59
2022-09-23T19:19:15.658Z,100125.75
2022-09-23T19:35:35.786Z,100127.56
2022-09-23T19:38:02.396Z,100118.91
2022-09-23T19:40:31.691Z,100117.12
2022-09-23T19:49:27.433Z,100124.22
2022-09-23T19:51:56.093Z,100118.50
2022-09-23T20:05:55.251Z,100126.81
2022-09-23T20:08:38.591Z,100120.84
2022-09-23T20:11:27.637Z,100117.69
2022-09-23T20:14:04.334Z,100115.56
2022-09-23T20:16:33.508Z,100114.31
2022-09-23T20:19:01.099Z,100116.19
2022-09-23T20:27:11.974Z,100119.88
2022-09-23T20:29:38.668Z,100116.06
2022-09-23T20:39:56.979Z,100123.53
2022-09-23T20:42:23.587Z,100115.97
2022-09-23T20:52:36.297Z,100127.44
2022-09-23T20:55:03.270Z,100120.75
2022-09-23T20:57:31.632Z,100118.09
2022-09-23T20:59:58.443Z,100115.37
2022-09-23T21:02:25.664Z,100120.97
2022-09-23T21:04:52.798Z,100113.09
2022-09-23T21:07:19.321Z,100112.56
2022-09-23T21:09:45.902Z,100111.75
2022-09-23T21:12:12.473Z,100121.03
2022-09-23T21:14:39.461Z,100112.66
2022-09-23T21:17:06.898Z,100106.41
2022-09-23T21:19:37.496Z,100117.28
2022-09-23T21:22:04.111Z,100124.97
2022-09-23T21:25:03.782Z,100123.28
2022-09-23T21:27:18.191Z,100120.03
2022-09-23T21:29:44.733Z,100118.66
2022-09-23T21:32:11.283Z,100121.13
2022-09-23T21:34:37.847Z,100120.84
2022-09-23T21:37:05.935Z,100131.47
2022-09-23T21:39:32.503Z,100122.50
2022-09-23T21:41:59.204Z,100126.84
2022-09-23T21:44:25.721Z,100129.28
2022-09-23T21:46:52.408Z,100126.34
2022-09-23T21:49:18.987Z,100132.03
2022-09-23T21:51:45.682Z,100125.47
2022-09-23T21:54:15.720Z,100131.50
2022-09-23T21:56:43.701Z,100127.38
2022-09-23T21:59:10.975Z,100123.84
2022-09-23T22:01:40.939Z,100129.88
2022-09-23T22:04:14.509Z,100135.00
2022-09-23T22:06:41.377Z,100127.12
2022-09-23T22:09:12.672Z,100131.78
2022-09-23T22:11:58.464Z,100124.13
2022-09-23T22:14:34.629Z,100122.50
2022-09-23T22:17:03.782Z,100123.56
2022-09-23T22:19:35.161Z,100119.72
2022-09-23T22:22:07.000Z,100114.00
2022-09-23T22:24:33.631Z,100122.19
2022-09-23T22:27:00.178Z,100121.38
2022-09-23T22:33:15.855Z,100124.66
2022-09-23T22:35:42.487Z,100122.47
2022-09-23T22:38:09.135Z,100112.63
2022-09-23T22:40:39.341Z,100124.38
2022-09-23T22:43:05.950Z,100115.37
2022-09-23T22:45:32.624Z,100116.22
2022-09-23T22:48:19.922Z,100122.22
2022-09-23T22:50:46.556Z,100121.13
2022-09-23T22:53:13.920Z,100118.34
2022-09-23T22:55:42.096Z,100121.38
2022-09-23T22:58:27.949Z,100129.22
2022-09-23T23:00:57.194Z,100119.44
2022-09-23T23:07:27.536Z,100118.09
2022-09-23T23:09:54.275Z,100114.56
2022-09-23T23:12:21.523Z,100115.41
2022-09-23T23:14:49.295Z,100122.22
2022-09-23T23:17:16.501Z,100120.03
2022-09-23T23:19:43.191Z,100122.22
2022-09-23T23:22:28.579Z,100123.00
2022-09-23T23:24:55.198Z,100117.78
2022-09-23T23:27:21.829Z,100116.13
2022-09-23T23:29:48.465Z,100117.50
2022-09-23T23:32:15.662Z,100111.50
2022-09-23T23:34:42.294Z,100114.50
2022-09-23T23:37:29.356Z,100115.88
2022-09-23T23:40:43.503Z,100116.94
2022-09-23T23:43:28.836Z,100115.41
2022-09-23T23:45:56.355Z,100119.22
2022-09-23T23:48:22.932Z,100112.13
2022-09-23T23:50:58.159Z,100109.94
2022-09-23T23:53:29.312Z,100116.22
2022-09-23T23:56:27.631Z,100117.56
2022-09-23T23:59:00.050Z,100109.13
